sensor_id;sensor_type;location;lat;lon;timestamp;P1;durP1;ratioP1;P2;durP2;ratioP2
10637;SDS011;47007;49.252;8.904;2022-07-06T00:00:36;1.80;;;1.70;;
10637;SDS011;47007;49.252;8.904;2022-07-06T00:03:03;1.90;;;1.80;;
10637;SDS011;47007;49.252;8.904;2022-07-06T00:05:30;1.73;;;1.63;;
10637;SDS011;47007;49.252;8.904;2022-07-06T00:07:56;2.05;;;1.60;;
10637;SDS011;47007;49.252;8.904;2022-07-06T00:10:23;1.30;;;1.27;;
10637;SDS011;47007;49.252;8.904;2022-07-06T00:12:50;3.13;;;1.50;;
10637;SDS011;47007;49.252;8.904;2022-07-06T00:15:16;1.60;;;1.50;;
10637;SDS011;47007;49.252;8.904;2022-07-06T00:17:43;2.38;;;1.73;;
10637;SDS011;47007;49.252;8.904;2022-07-06T00:20:10;2.72;;;1.42;;
10637;SDS011;47007;49.252;8.904;2022-07-06T00:22:36;1.85;;;1.55;;
10637;SDS011;47007;49.252;8.904;2022-07-06T00:25:03;2.05;;;1.88;;
10637;SDS011;47007;49.252;8.904;2022-07-06T00:27:30;2.10;;;1.80;;
10637;SDS011;47007;49.252;8.904;2022-07-06T00:29:57;1.70;;;1.60;;
10637;SDS011;47007;49.252;8.904;2022-07-06T00:32:23;2.45;;;1.73;;
10637;SDS011;47007;49.252;8.904;2022-07-06T00:34:51;3.38;;;1.60;;
10637;SDS011;47007;49.252;8.904;2022-07-06T00:37:21;2.28;;;2.10;;
10637;SDS011;47007;49.252;8.904;2022-07-06T00:39:47;1.85;;;1.70;;
10637;SDS011;47007;49.252;8.904;2022-07-06T00:42:14;3.00;;;2.80;;
10637;SDS011;47007;49.252;8.904;2022-07-06T00:44:41;1.92;;;1.83;;
10637;SDS011;47007;49.252;8.904;2022-07-06T00:47:08;4.90;;;2.05;;
10637;SDS011;47007;49.252;8.904;2022-07-06T00:49:34;1.88;;;1.67;;
10637;SDS011;47007;49.252;8.904;2022-07-06T00:52:19;1.67;;;1.58;;
10637;SDS011;47007;49.252;8.904;2022-07-06T00:54:46;1.65;;;1.55;;
10637;SDS011;47007;49.252;8.904;2022-07-06T00:57:13;1.75;;;1.50;;
10637;SDS011;47007;49.252;8.904;2022-07-06T00:59:40;2.50;;;2.30;;
10637;SDS011;47007;49.252;8.904;2022-07-06T01:05:55;2.08;;;1.98;;
10637;SDS011;47007;49.252;8.904;2022-07-06T01:08:22;2.35;;;2.15;;
10637;SDS011;47007;49.252;8.904;2022-07-06T01:10:50;2.05;;;1.95;;
10637;SDS011;47007;49.252;8.904;2022-07-06T01:13:17;1.90;;;1.80;;
10637;SDS011;47007;49.252;8.904;2022-07-06T01:15:44;2.33;;;2.10;;
10637;SDS011;47007;49.252;8.904;2022-07-06T01:18:11;2.25;;;2.05;;
10637;SDS011;47007;49.252;8.904;2022-07-06T01:20:39;1.98;;;1.88;;
10637;SDS011;47007;49.252;8.904;2022-07-06T01:23:05;2.55;;;1.92;;
10637;SDS011;47007;49.252;8.904;2022-07-06T01:25:32;4.43;;;1.88;;
10637;SDS011;47007;49.252;8.904;2022-07-06T01:27:59;1.98;;;1.88;;
10637;SDS011;47007;49.252;8.904;2022-07-06T01:30:26;2.58;;;2.20;;
10637;SDS011;47007;49.252;8.904;2022-07-06T01:32:53;3.10;;;1.70;;
10637;SDS011;47007;49.252;8.904;2022-07-06T01:35:19;1.95;;;1.73;;
10637;SDS011;47007;49.252;8.904;2022-07-06T01:37:46;2.53;;;2.40;;
10637;SDS011;47007;49.252;8.904;2022-07-06T01:40:13;2.55;;;2.30;;
10637;SDS011;47007;49.252;8.904;2022-07-06T01:42:40;4.53;;;2.03;;
10637;SDS011;47007;49.252;8.904;2022-07-06T01:45:07;1.70;;;1.60;;
10637;SDS011;47007;49.252;8.904;2022-07-06T01:47:36;1.75;;;1.65;;
10637;SDS011;47007;49.252;8.904;2022-07-06T01:50:06;3.10;;;2.22;;
10637;SDS011;47007;49.252;8.904;2022-07-06T01:52:39;3.30;;;1.98;;
10637;SDS011;47007;49.252;8.904;2022-07-06T01:55:05;1.80;;;1.70;;
10637;SDS011;47007;49.252;8.904;2022-07-06T01:57:34;2.38;;;2.00;;
10637;SDS011;47007;49.252;8.904;2022-07-06T02:00:02;4.72;;;2.10;;
10637;SDS011;47007;49.252;8.904;2022-07-06T02:02:38;2.35;;;2.17;;
10637;SDS011;47007;49.252;8.904;2022-07-06T02:05:05;2.40;;;2.20;;
10637;SDS011;47007;49.252;8.904;2022-07-06T02:07:32;2.58;;;2.38;;
10637;SDS011;47007;49.252;8.904;2022-07-06T02:10:00;2.80;;;2.60;;
10637;SDS011;47007;49.252;8.904;2022-07-06T02:12:27;1.90;;;1.80;;
10637;SDS011;47007;49.252;8.904;2022-07-06T02:14:54;1.92;;;1.83;;
10637;SDS011;47007;49.252;8.904;2022-07-06T02:17:20;2.13;;;2.03;;
10637;SDS011;47007;49.252;8.904;2022-07-06T02:19:49;2.17;;;2.03;;
10637;SDS011;47007;49.252;8.904;2022-07-06T02:22:15;2.40;;;2.20;;
10637;SDS011;47007;49.252;8.904;2022-07-06T02:24:42;2.30;;;2.20;;
10637;SDS011;47007;49.252;8.904;2022-07-06T02:27:09;2.42;;;2.22;;
10637;SDS011;47007;49.252;8.904;2022-07-06T02:29:36;4.10;;;2.75;;
10637;SDS011;47007;49.252;8.904;2022-07-06T02:32:02;2.35;;;2.25;;
10637;SDS011;47007;49.252;8.904;2022-07-06T02:34:30;2.25;;;2.10;;
10637;SDS011;47007;49.252;8.904;2022-07-06T02:36:57;2.72;;;2.53;;
10637;SDS011;47007;49.252;8.904;2022-07-06T02:39:24;2.60;;;2.40;;
10637;SDS011;47007;49.252;8.904;2022-07-06T02:41:51;2.53;;;2.33;;
10637;SDS011;47007;49.252;8.904;2022-07-06T02:44:18;2.25;;;2.15;;
10637;SDS011;47007;49.252;8.904;2022-07-06T02:46:44;4.28;;;2.55;;
10637;SDS011;47007;49.252;8.904;2022-07-06T02:49:11;3.90;;;2.40;;
10637;SDS011;47007;49.252;8.904;2022-07-06T02:51:41;2.88;;;2.67;;
10637;SDS011;47007;49.252;8.904;2022-07-06T02:54:08;6.65;;;2.58;;
10637;SDS011;47007;49.252;8.904;2022-07-06T02:56:35;2.10;;;2.00;;
10637;SDS011;47007;49.252;8.904;2022-07-06T02:59:02;2.97;;;2.78;;
10637;SDS011;47007;49.252;8.904;2022-07-06T03:01:29;2.40;;;2.20;;
10637;SDS011;47007;49.252;8.904;2022-07-06T03:03:56;2.10;;;2.00;;
10637;SDS011;47007;49.252;8.904;2022-07-06T03:06:23;3.58;;;2.70;;
10637;SDS011;47007;49.252;8.904;2022-07-06T03:08:51;2.90;;;2.70;;
10637;SDS011;47007;49.252;8.904;2022-07-06T03:11:18;2.85;;;2.53;;
10637;SDS011;47007;49.252;8.904;2022-07-06T03:13:45;2.90;;;2.65;;
10637;SDS011;47007;49.252;8.904;2022-07-06T03:16:12;2.65;;;2.53;;
10637;SDS011;47007;49.252;8.904;2022-07-06T03:18:39;3.15;;;2.75;;
10637;SDS011;47007;49.252;8.904;2022-07-06T03:21:06;2.45;;;2.25;;
10637;SDS011;47007;49.252;8.904;2022-07-06T03:23:33;3.17;;;2.70;;
10637;SDS011;47007;49.252;8.904;2022-07-06T03:26:00;4.40;;;2.63;;
10637;SDS011;47007;49.252;8.904;2022-07-06T03:28:29;3.15;;;2.72;;
10637;SDS011;47007;49.252;8.904;2022-07-06T03:30:56;2.20;;;2.08;;
10637;SDS011;47007;49.252;8.904;2022-07-06T03:33:23;2.47;;;2.38;;
10637;SDS011;47007;49.252;8.904;2022-07-06T03:35:51;2.45;;;2.17;;
10637;SDS011;47007;49.252;8.904;2022-07-06T03:38:17;1.88;;;1.77;;
10637;SDS011;47007;49.252;8.904;2022-07-06T03:40:44;2.10;;;2.00;;
10637;SDS011;47007;49.252;8.904;2022-07-06T03:43:11;2.42;;;2.22;;
10637;SDS011;47007;49.252;8.904;2022-07-06T03:45:38;2.72;;;2.53;;
10637;SDS011;47007;49.252;8.904;2022-07-06T03:48:05;2.10;;;2.00;;
10637;SDS011;47007;49.252;8.904;2022-07-06T03:50:34;2.13;;;1.90;;
10637;SDS011;47007;49.252;8.904;2022-07-06T03:53:02;3.10;;;2.25;;
10637;SDS011;47007;49.252;8.904;2022-07-06T03:55:28;3.67;;;2.47;;
10637;SDS011;47007;49.252;8.904;2022-07-06T03:58:01;2.63;;;1.90;;
10637;SDS011;47007;49.252;8.904;2022-07-06T04:00:34;2.30;;;2.10;;
10637;SDS011;47007;49.252;8.904;2022-07-06T04:03:04;2.58;;;2.15;;
10637;SDS011;47007;49.252;8.904;2022-07-06T04:05:36;3.22;;;2.25;;
10637;SDS011;47007;49.252;8.904;2022-07-06T04:08:03;4.43;;;2.60;;
10637;SDS011;47007;49.252;8.904;2022-07-06T04:10:36;2.75;;;2.30;;
10637;SDS011;47007;49.252;8.904;2022-07-06T04:13:03;3.30;;;2.17;;
10637;SDS011;47007;49.252;8.904;2022-07-06T04:15:29;2.50;;;2.30;;
10637;SDS011;47007;49.252;8.904;2022-07-06T04:17:56;2.92;;;2.33;;
10637;SDS011;47007;49.252;8.904;2022-07-06T04:20:28;1.95;;;1.85;;
10637;SDS011;47007;49.252;8.904;2022-07-06T04:22:55;2.03;;;1.77;;
10637;SDS011;47007;49.252;8.904;2022-07-06T04:25:24;3.92;;;2.28;;
10637;SDS011;47007;49.252;8.904;2022-07-06T04:27:52;2.30;;;2.10;;
10637;SDS011;47007;49.252;8.904;2022-07-06T04:30:20;3.47;;;2.38;;
10637;SDS011;47007;49.252;8.904;2022-07-06T04:32:47;2.50;;;2.30;;
10637;SDS011;47007;49.252;8.904;2022-07-06T04:35:14;10.50;;;2.78;;
10637;SDS011;47007;49.252;8.904;2022-07-06T04:37:42;2.05;;;1.95;;
10637;SDS011;47007;49.252;8.904;2022-07-06T04:40:13;2.63;;;1.85;;
10637;SDS011;47007;49.252;8.904;2022-07-06T04:42:51;2.00;;;1.90;;
10637;SDS011;47007;49.252;8.904;2022-07-06T04:45:18;2.20;;;2.08;;
10637;SDS011;47007;49.252;8.904;2022-07-06T04:47:45;2.30;;;2.00;;
10637;SDS011;47007;49.252;8.904;2022-07-06T04:50:13;2.20;;;2.00;;
10637;SDS011;47007;49.252;8.904;2022-07-06T04:52:41;2.50;;;2.30;;
10637;SDS011;47007;49.252;8.904;2022-07-06T04:55:08;2.10;;;2.00;;
10637;SDS011;47007;49.252;8.904;2022-07-06T04:57:36;2.05;;;1.95;;
10637;SDS011;47007;49.252;8.904;2022-07-06T05:00:04;2.22;;;2.13;;
10637;SDS011;47007;49.252;8.904;2022-07-06T05:02:31;4.13;;;2.13;;
10637;SDS011;47007;49.252;8.904;2022-07-06T05:04:58;3.83;;;2.40;;
10637;SDS011;47007;49.252;8.904;2022-07-06T05:07:25;3.45;;;2.15;;
10637;SDS011;47007;49.252;8.904;2022-07-06T05:09:56;2.65;;;2.45;;
10637;SDS011;47007;49.252;8.904;2022-07-06T05:12:23;2.53;;;2.42;;
10637;SDS011;47007;49.252;8.904;2022-07-06T05:14:50;2.65;;;2.30;;
10637;SDS011;47007;49.252;8.904;2022-07-06T05:17:20;4.68;;;2.47;;
10637;SDS011;47007;49.252;8.904;2022-07-06T05:19:55;2.30;;;2.17;;
10637;SDS011;47007;49.252;8.904;2022-07-06T05:22:22;2.65;;;2.45;;
10637;SDS011;47007;49.252;8.904;2022-07-06T05:24:50;3.80;;;2.45;;
10637;SDS011;47007;49.252;8.904;2022-07-06T05:27:17;5.07;;;2.22;;
10637;SDS011;47007;49.252;8.904;2022-07-06T05:29:45;3.17;;;2.35;;
10637;SDS011;47007;49.252;8.904;2022-07-06T05:32:12;2.88;;;2.53;;
10637;SDS011;47007;49.252;8.904;2022-07-06T05:34:39;4.13;;;2.30;;
10637;SDS011;47007;49.252;8.904;2022-07-06T05:37:06;3.33;;;2.42;;
10637;SDS011;47007;49.252;8.904;2022-07-06T05:39:34;2.35;;;2.15;;
10637;SDS011;47007;49.252;8.904;2022-07-06T05:42:01;5.32;;;2.45;;
10637;SDS011;47007;49.252;8.904;2022-07-06T05:44:29;3.88;;;2.38;;
10637;SDS011;47007;49.252;8.904;2022-07-06T05:46:56;2.28;;;2.08;;
10637;SDS011;47007;49.252;8.904;2022-07-06T05:49:44;5.82;;;2.15;;
10637;SDS011;47007;49.252;8.904;2022-07-06T05:52:30;2.40;;;2.20;;
10637;SDS011;47007;49.252;8.904;2022-07-06T05:54:56;3.88;;;2.63;;
10637;SDS011;47007;49.252;8.904;2022-07-06T05:57:24;2.60;;;2.40;;
10637;SDS011;47007;49.252;8.904;2022-07-06T05:59:53;2.78;;;2.28;;
10637;SDS011;47007;49.252;8.904;2022-07-06T06:02:20;2.47;;;2.28;;
10637;SDS011;47007;49.252;8.904;2022-07-06T06:04:47;2.63;;;2.15;;
10637;SDS011;47007;49.252;8.904;2022-07-06T06:07:14;2.20;;;2.08;;
10637;SDS011;47007;49.252;8.904;2022-07-06T06:09:41;2.85;;;2.10;;
10637;SDS011;47007;49.252;8.904;2022-07-06T06:12:07;3.35;;;2.10;;
10637;SDS011;47007;49.252;8.904;2022-07-06T06:14:35;2.67;;;2.40;;
10637;SDS011;47007;49.252;8.904;2022-07-06T06:17:01;3.28;;;2.30;;
10637;SDS011;47007;49.252;8.904;2022-07-06T06:19:28;2.30;;;2.08;;
10637;SDS011;47007;49.252;8.904;2022-07-06T06:21:55;1.95;;;1.85;;
10637;SDS011;47007;49.252;8.904;2022-07-06T06:24:22;2.10;;;1.90;;
10637;SDS011;47007;49.252;8.904;2022-07-06T06:26:50;3.05;;;1.90;;
10637;SDS011;47007;49.252;8.904;2022-07-06T06:29:17;2.10;;;1.73;;
10637;SDS011;47007;49.252;8.904;2022-07-06T06:31:43;3.20;;;1.75;;
10637;SDS011;47007;49.252;8.904;2022-07-06T06:34:10;2.55;;;1.90;;
10637;SDS011;47007;49.252;8.904;2022-07-06T06:36:37;3.70;;;1.73;;
10637;SDS011;47007;49.252;8.904;2022-07-06T06:39:03;3.70;;;1.77;;
10637;SDS011;47007;49.252;8.904;2022-07-06T06:41:30;2.30;;;1.63;;
10637;SDS011;47007;49.252;8.904;2022-07-06T06:43:57;2.40;;;1.65;;
10637;SDS011;47007;49.252;8.904;2022-07-06T06:46:28;2.33;;;1.67;;
10637;SDS011;47007;49.252;8.904;2022-07-06T06:48:54;2.95;;;1.50;;
10637;SDS011;47007;49.252;8.904;2022-07-06T06:51:24;1.70;;;1.60;;
10637;SDS011;47007;49.252;8.904;2022-07-06T06:53:51;2.28;;;1.60;;
10637;SDS011;47007;49.252;8.904;2022-07-06T06:56:18;1.88;;;1.30;;
10637;SDS011;47007;49.252;8.904;2022-07-06T06:58:44;4.75;;;1.58;;
10637;SDS011;47007;49.252;8.904;2022-07-06T07:01:31;1.88;;;1.55;;
10637;SDS011;47007;49.252;8.904;2022-07-06T07:03:59;2.00;;;1.60;;
10637;SDS011;47007;49.252;8.904;2022-07-06T07:06:26;2.08;;;1.30;;
10637;SDS011;47007;49.252;8.904;2022-07-06T07:08:52;1.85;;;1.30;;
10637;SDS011;47007;49.252;8.904;2022-07-06T07:11:20;1.50;;;1.33;;
10637;SDS011;47007;49.252;8.904;2022-07-06T07:13:47;3.17;;;1.65;;
10637;SDS011;47007;49.252;8.904;2022-07-06T07:16:14;2.10;;;1.30;;
10637;SDS011;47007;49.252;8.904;2022-07-06T07:18:41;3.45;;;1.55;;
10637;SDS011;47007;49.252;8.904;2022-07-06T07:21:08;2.35;;;1.27;;
10637;SDS011;47007;49.252;8.904;2022-07-06T07:23:34;2.33;;;1.70;;
10637;SDS011;47007;49.252;8.904;2022-07-06T07:26:01;2.70;;;1.75;;
10637;SDS011;47007;49.252;8.904;2022-07-06T07:28:28;2.95;;;1.70;;
10637;SDS011;47007;49.252;8.904;2022-07-06T07:30:55;3.20;;;1.40;;
10637;SDS011;47007;49.252;8.904;2022-07-06T07:33:21;3.03;;;1.65;;
10637;SDS011;47007;49.252;8.904;2022-07-06T07:35:49;3.15;;;1.42;;
10637;SDS011;47007;49.252;8.904;2022-07-06T07:38:15;3.40;;;1.75;;
10637;SDS011;47007;49.252;8.904;2022-07-06T07:40:42;1.90;;;1.00;;
10637;SDS011;47007;49.252;8.904;2022-07-06T07:43:09;2.80;;;1.50;;
10637;SDS011;47007;49.252;8.904;2022-07-06T07:45:36;2.30;;;1.45;;
10637;SDS011;47007;49.252;8.904;2022-07-06T07:48:03;3.38;;;1.30;;
10637;SDS011;47007;49.252;8.904;2022-07-06T07:50:33;1.67;;;1.35;;
10637;SDS011;47007;49.252;8.904;2022-07-06T07:53:03;2.40;;;1.27;;
10637;SDS011;47007;49.252;8.904;2022-07-06T07:55:34;4.13;;;1.50;;
10637;SDS011;47007;49.252;8.904;2022-07-06T07:58:09;2.30;;;1.30;;
10637;SDS011;47007;49.252;8.904;2022-07-06T08:00:51;2.22;;;1.25;;
10637;SDS011;47007;49.252;8.904;2022-07-06T08:03:30;2.95;;;1.50;;
10637;SDS011;47007;49.252;8.904;2022-07-06T08:06:00;2.03;;;1.20;;
10637;SDS011;47007;49.252;8.904;2022-07-06T08:08:29;2.38;;;1.50;;
10637;SDS011;47007;49.252;8.904;2022-07-06T08:11:00;2.35;;;1.45;;
10637;SDS011;47007;49.252;8.904;2022-07-06T08:13:44;1.40;;;1.30;;
10637;SDS011;47007;49.252;8.904;2022-07-06T08:16:14;2.50;;;1.48;;
10637;SDS011;47007;49.252;8.904;2022-07-06T08:18:41;3.50;;;1.20;;
10637;SDS011;47007;49.252;8.904;2022-07-06T08:21:11;3.38;;;1.50;;
10637;SDS011;47007;49.252;8.904;2022-07-06T08:23:50;2.88;;;1.30;;
10637;SDS011;47007;49.252;8.904;2022-07-06T08:26:33;2.85;;;1.50;;
10637;SDS011;47007;49.252;8.904;2022-07-06T08:29:03;3.90;;;1.73;;
10637;SDS011;47007;49.252;8.904;2022-07-06T08:31:30;4.20;;;1.60;;
10637;SDS011;47007;49.252;8.904;2022-07-06T08:34:20;2.85;;;1.27;;
10637;SDS011;47007;49.252;8.904;2022-07-06T08:36:49;1.92;;;1.38;;
10637;SDS011;47007;49.252;8.904;2022-07-06T08:39:17;5.28;;;1.77;;
10637;SDS011;47007;49.252;8.904;2022-07-06T08:41:45;2.63;;;1.30;;
10637;SDS011;47007;49.252;8.904;2022-07-06T08:44:40;2.35;;;1.40;;
10637;SDS011;47007;49.252;8.904;2022-07-06T08:47:10;2.65;;;1.38;;
10637;SDS011;47007;49.252;8.904;2022-07-06T08:49:42;2.97;;;1.25;;
10637;SDS011;47007;49.252;8.904;2022-07-06T08:52:12;2.13;;;1.48;;
10637;SDS011;47007;49.252;8.904;2022-07-06T08:54:45;3.25;;;1.20;;
10637;SDS011;47007;49.252;8.904;2022-07-06T08:57:15;2.83;;;1.35;;
10637;SDS011;47007;49.252;8.904;2022-07-06T08:59:56;2.78;;;1.60;;
10637;SDS011;47007;49.252;8.904;2022-07-06T09:02:32;1.35;;;1.25;;
10637;SDS011;47007;49.252;8.904;2022-07-06T09:05:01;2.20;;;1.42;;
10637;SDS011;47007;49.252;8.904;2022-07-06T09:07:32;1.83;;;1.30;;
10637;SDS011;47007;49.252;8.904;2022-07-06T09:10:21;1.70;;;1.58;;
10637;SDS011;47007;49.252;8.904;2022-07-06T09:13:01;2.13;;;1.65;;
10637;SDS011;47007;49.252;8.904;2022-07-06T09:15:37;3.38;;;1.60;;
10637;SDS011;47007;49.252;8.904;2022-07-06T09:18:08;4.57;;;1.75;;
10637;SDS011;47007;49.252;8.904;2022-07-06T09:20:41;4.05;;;1.67;;
10637;SDS011;47007;49.252;8.904;2022-07-06T09:23:15;3.58;;;1.70;;
10637;SDS011;47007;49.252;8.904;2022-07-06T09:25:42;2.38;;;1.85;;
10637;SDS011;47007;49.252;8.904;2022-07-06T09:28:15;2.35;;;1.35;;
10637;SDS011;47007;49.252;8.904;2022-07-06T09:30:42;4.05;;;1.80;;
10637;SDS011;47007;49.252;8.904;2022-07-06T09:33:10;2.60;;;1.50;;
10637;SDS011;47007;49.252;8.904;2022-07-06T09:35:39;3.65;;;2.15;;
10637;SDS011;47007;49.252;8.904;2022-07-06T09:38:09;3.17;;;2.08;;
10637;SDS011;47007;49.252;8.904;2022-07-06T09:40:44;3.20;;;2.10;;
10637;SDS011;47007;49.252;8.904;2022-07-06T09:43:15;4.25;;;1.90;;
10637;SDS011;47007;49.252;8.904;2022-07-06T09:45:54;5.88;;;1.50;;
10637;SDS011;47007;49.252;8.904;2022-07-06T09:48:26;3.47;;;2.10;;
10637;SDS011;47007;49.252;8.904;2022-07-06T09:50:56;3.00;;;1.70;;
10637;SDS011;47007;49.252;8.904;2022-07-06T09:53:25;2.78;;;1.60;;
10637;SDS011;47007;49.252;8.904;2022-07-06T09:55:56;3.28;;;2.20;;
10637;SDS011;47007;49.252;8.904;2022-07-06T09:58:28;3.40;;;2.20;;
10637;SDS011;47007;49.252;8.904;2022-07-06T10:01:25;3.38;;;1.70;;
10637;SDS011;47007;49.252;8.904;2022-07-06T10:03:54;3.28;;;1.55;;
10637;SDS011;47007;49.252;8.904;2022-07-06T10:06:24;2.00;;;1.80;;
10637;SDS011;47007;49.252;8.904;2022-07-06T10:08:54;3.88;;;1.80;;
10637;SDS011;47007;49.252;8.904;2022-07-06T10:11:23;3.60;;;2.03;;
10637;SDS011;47007;49.252;8.904;2022-07-06T10:13:53;4.05;;;2.20;;
10637;SDS011;47007;49.252;8.904;2022-07-06T10:16:25;2.63;;;1.98;;
10637;SDS011;47007;49.252;8.904;2022-07-06T10:18:52;3.00;;;2.05;;
10637;SDS011;47007;49.252;8.904;2022-07-06T10:21:22;2.50;;;1.90;;
10637;SDS011;47007;49.252;8.904;2022-07-06T10:24:01;5.22;;;2.20;;
10637;SDS011;47007;49.252;8.904;2022-07-06T10:26:29;4.30;;;2.67;;
10637;SDS011;47007;49.252;8.904;2022-07-06T10:28:58;3.30;;;2.38;;
10637;SDS011;47007;49.252;8.904;2022-07-06T10:31:26;3.65;;;2.20;;
10637;SDS011;47007;49.252;8.904;2022-07-06T10:33:55;3.22;;;2.17;;
10637;SDS011;47007;49.252;8.904;2022-07-06T10:36:24;3.92;;;3.05;;
10637;SDS011;47007;49.252;8.904;2022-07-06T10:38:52;3.03;;;2.20;;
10637;SDS011;47007;49.252;8.904;2022-07-06T10:41:29;3.50;;;2.35;;
10637;SDS011;47007;49.252;8.904;2022-07-06T10:43:57;2.13;;;1.90;;
10637;SDS011;47007;49.252;8.904;2022-07-06T10:46:40;2.28;;;2.00;;
10637;SDS011;47007;49.252;8.904;2022-07-06T10:49:16;4.90;;;2.35;;
10637;SDS011;47007;49.252;8.904;2022-07-06T10:52:03;2.47;;;2.10;;
10637;SDS011;47007;49.252;8.904;2022-07-06T10:54:32;4.75;;;2.08;;
10637;SDS011;47007;49.252;8.904;2022-07-06T10:57:10;3.95;;;2.72;;
10637;SDS011;47007;49.252;8.904;2022-07-06T10:59:59;2.70;;;1.80;;
10637;SDS011;47007;49.252;8.904;2022-07-06T11:02:27;4.15;;;1.83;;
10637;SDS011;47007;49.252;8.904;2022-07-06T11:05:09;3.15;;;2.65;;
10637;SDS011;47007;49.252;8.904;2022-07-06T11:07:48;2.03;;;1.83;;
10637;SDS011;47007;49.252;8.904;2022-07-06T11:10:16;2.92;;;2.30;;
10637;SDS011;47007;49.252;8.904;2022-07-06T11:12:46;3.78;;;2.20;;
10637;SDS011;47007;49.252;8.904;2022-07-06T11:15:14;5.05;;;2.08;;
10637;SDS011;47007;49.252;8.904;2022-07-06T11:18:15;3.42;;;1.90;;
10637;SDS011;47007;49.252;8.904;2022-07-06T11:21:14;2.30;;;1.40;;
10637;SDS011;47007;49.252;8.904;2022-07-06T11:23:45;3.33;;;1.65;;
10637;SDS011;47007;49.252;8.904;2022-07-06T11:26:14;3.28;;;1.75;;
10637;SDS011;47007;49.252;8.904;2022-07-06T11:28:41;2.53;;;1.63;;
10637;SDS011;47007;49.252;8.904;2022-07-06T11:31:08;3.10;;;2.80;;
10637;SDS011;47007;49.252;8.904;2022-07-06T11:33:35;5.00;;;1.77;;
10637;SDS011;47007;49.252;8.904;2022-07-06T11:36:15;3.40;;;1.98;;
10637;SDS011;47007;49.252;8.904;2022-07-06T11:38:49;3.78;;;1.60;;
10637;SDS011;47007;49.252;8.904;2022-07-06T11:41:16;1.55;;;1.40;;
10637;SDS011;47007;49.252;8.904;2022-07-06T11:43:44;5.20;;;1.85;;
10637;SDS011;47007;49.252;8.904;2022-07-06T11:48:57;2.10;;;2.00;;
10637;SDS011;47007;49.252;8.904;2022-07-06T11:51:29;2.30;;;2.10;;
10637;SDS011;47007;49.252;8.904;2022-07-06T11:53:58;4.63;;;1.70;;
10637;SDS011;47007;49.252;8.904;2022-07-06T11:56:27;2.95;;;1.60;;
10637;SDS011;47007;49.252;8.904;2022-07-06T11:58:56;2.40;;;1.92;;
10637;SDS011;47007;49.252;8.904;2022-07-06T12:01:24;2.83;;;1.20;;
10637;SDS011;47007;49.252;8.904;2022-07-06T12:03:57;3.58;;;1.55;;
10637;SDS011;47007;49.252;8.904;2022-07-06T12:06:26;3.13;;;1.60;;
10637;SDS011;47007;49.252;8.904;2022-07-06T12:08:57;2.42;;;1.35;;
10637;SDS011;47007;49.252;8.904;2022-07-06T12:11:26;3.53;;;1.52;;
10637;SDS011;47007;49.252;8.904;2022-07-06T12:13:55;3.85;;;1.50;;
10637;SDS011;47007;49.252;8.904;2022-07-06T12:16:36;2.28;;;1.20;;
10637;SDS011;47007;49.252;8.904;2022-07-06T12:19:03;2.78;;;1.23;;
10637;SDS011;47007;49.252;8.904;2022-07-06T12:21:33;1.55;;;0.80;;
10637;SDS011;47007;49.252;8.904;2022-07-06T12:24:01;1.55;;;0.75;;
10637;SDS011;47007;49.252;8.904;2022-07-06T12:26:28;1.70;;;1.00;;
10637;SDS011;47007;49.252;8.904;2022-07-06T12:29:09;1.88;;;1.13;;
10637;SDS011;47007;49.252;8.904;2022-07-06T12:31:40;1.35;;;1.13;;
10637;SDS011;47007;49.252;8.904;2022-07-06T12:34:18;0.93;;;0.80;;
10637;SDS011;47007;49.252;8.904;2022-07-06T12:36:47;1.77;;;0.73;;
10637;SDS011;47007;49.252;8.904;2022-07-06T12:39:18;2.17;;;0.95;;
10637;SDS011;47007;49.252;8.904;2022-07-06T12:44:18;2.17;;;1.00;;
10637;SDS011;47007;49.252;8.904;2022-07-06T12:46:46;5.60;;;0.95;;
10637;SDS011;47007;49.252;8.904;2022-07-06T12:51:49;2.65;;;0.75;;
10637;SDS011;47007;49.252;8.904;2022-07-06T12:54:20;1.95;;;0.77;;
10637;SDS011;47007;49.252;8.904;2022-07-06T12:57:08;1.67;;;0.70;;
10637;SDS011;47007;49.252;8.904;2022-07-06T12:59:41;2.55;;;0.82;;
10637;SDS011;47007;49.252;8.904;2022-07-06T13:05:23;2.65;;;0.85;;
10637;SDS011;47007;49.252;8.904;2022-07-06T13:07:55;2.88;;;0.82;;
10637;SDS011;47007;49.252;8.904;2022-07-06T13:10:23;4.65;;;0.80;;
10637;SDS011;47007;49.252;8.904;2022-07-06T13:12:51;1.50;;;0.80;;
10637;SDS011;47007;49.252;8.904;2022-07-06T13:15:18;2.33;;;1.00;;
10637;SDS011;47007;49.252;8.904;2022-07-06T13:17:44;1.67;;;0.60;;
10637;SDS011;47007;49.252;8.904;2022-07-06T13:20:12;0.80;;;0.80;;
10637;SDS011;47007;49.252;8.904;2022-07-06T13:22:40;2.40;;;0.85;;
10637;SDS011;47007;49.252;8.904;2022-07-06T13:25:07;2.35;;;0.60;;
10637;SDS011;47007;49.252;8.904;2022-07-06T13:27:37;2.75;;;0.50;;
10637;SDS011;47007;49.252;8.904;2022-07-06T13:30:06;0.93;;;0.60;;
10637;SDS011;47007;49.252;8.904;2022-07-06T13:32:33;1.75;;;0.77;;
10637;SDS011;47007;49.252;8.904;2022-07-06T13:35:09;2.05;;;0.70;;
10637;SDS011;47007;49.252;8.904;2022-07-06T13:37:40;2.03;;;0.63;;
10637;SDS011;47007;49.252;8.904;2022-07-06T13:40:09;1.20;;;0.63;;
10637;SDS011;47007;49.252;8.904;2022-07-06T13:42:39;0.60;;;0.60;;
10637;SDS011;47007;49.252;8.904;2022-07-06T13:45:09;1.75;;;0.82;;
10637;SDS011;47007;49.252;8.904;2022-07-06T13:47:36;1.10;;;0.70;;
10637;SDS011;47007;49.252;8.904;2022-07-06T13:50:03;2.25;;;0.70;;
10637;SDS011;47007;49.252;8.904;2022-07-06T13:52:30;1.55;;;0.90;;
10637;SDS011;47007;49.252;8.904;2022-07-06T13:55:05;0.60;;;0.52;;
10637;SDS011;47007;49.252;8.904;2022-07-06T13:57:34;1.42;;;0.90;;
10637;SDS011;47007;49.252;8.904;2022-07-06T14:00:01;3.47;;;1.00;;
10637;SDS011;47007;49.252;8.904;2022-07-06T14:02:34;0.65;;;0.40;;
10637;SDS011;47007;49.252;8.904;2022-07-06T14:05:01;1.48;;;0.60;;
10637;SDS011;47007;49.252;8.904;2022-07-06T14:07:28;1.10;;;0.80;;
10637;SDS011;47007;49.252;8.904;2022-07-06T14:09:54;1.25;;;0.63;;
10637;SDS011;47007;49.252;8.904;2022-07-06T14:12:21;1.42;;;0.88;;
10637;SDS011;47007;49.252;8.904;2022-07-06T14:14:50;0.88;;;0.75;;
10637;SDS011;47007;49.252;8.904;2022-07-06T14:17:16;1.25;;;0.88;;
10637;SDS011;47007;49.252;8.904;2022-07-06T14:19:44;2.17;;;1.27;;
10637;SDS011;47007;49.252;8.904;2022-07-06T14:22:10;1.35;;;0.80;;
10637;SDS011;47007;49.252;8.904;2022-07-06T14:24:37;1.13;;;1.02;;
10637;SDS011;47007;49.252;8.904;2022-07-06T14:27:04;1.00;;;0.60;;
10637;SDS011;47007;49.252;8.904;2022-07-06T14:29:31;2.83;;;1.02;;
10637;SDS011;47007;49.252;8.904;2022-07-06T14:31:57;3.13;;;1.00;;
10637;SDS011;47007;49.252;8.904;2022-07-06T14:34:24;2.08;;;0.88;;
10637;SDS011;47007;49.252;8.904;2022-07-06T14:36:52;2.60;;;1.10;;
10637;SDS011;47007;49.252;8.904;2022-07-06T14:39:21;1.60;;;1.02;;
10637;SDS011;47007;49.252;8.904;2022-07-06T14:41:57;2.92;;;1.13;;
10637;SDS011;47007;49.252;8.904;2022-07-06T14:44:24;2.17;;;0.88;;
10637;SDS011;47007;49.252;8.904;2022-07-06T14:46:52;2.53;;;0.90;;
10637;SDS011;47007;49.252;8.904;2022-07-06T14:49:20;1.00;;;0.68;;
10637;SDS011;47007;49.252;8.904;2022-07-06T14:51:49;1.73;;;0.70;;
10637;SDS011;47007;49.252;8.904;2022-07-06T14:54:21;1.88;;;0.90;;
10637;SDS011;47007;49.252;8.904;2022-07-06T14:56:48;1.10;;;1.00;;
10637;SDS011;47007;49.252;8.904;2022-07-06T14:59:15;4.82;;;0.90;;
10637;SDS011;47007;49.252;8.904;2022-07-06T15:01:51;1.40;;;1.15;;
10637;SDS011;47007;49.252;8.904;2022-07-06T15:04:18;2.97;;;1.20;;
10637;SDS011;47007;49.252;8.904;2022-07-06T15:06:45;2.30;;;1.10;;
10637;SDS011;47007;49.252;8.904;2022-07-06T15:09:22;1.77;;;1.23;;
10637;SDS011;47007;49.252;8.904;2022-07-06T15:11:50;1.25;;;1.15;;
10637;SDS011;47007;49.252;8.904;2022-07-06T15:14:17;1.98;;;1.02;;
10637;SDS011;47007;49.252;8.904;2022-07-06T15:16:49;1.58;;;1.30;;